Calabar, Nigeria
Current Conditions -  °F | °C
As of 4:00 AM on Monday 24 Nov 2014 (Local Time) from FGSL Reporting Station
Few Clouds Few Clouds  
Wind Chill: 77°   Ceiling: Unl
Heat Index: 78°   Visibility: 5mi
Dew Point: 77°   Wind: 7mph
Humidity: 100%   Direction: 240°WSW
Pressure: 29.85"   Gusts: NA
Location:  4.96°N, 8.31°E
Report Text: FGSL 240300Z 24006KT 8000 FEW008 FEW020CB 25/25 Q1011 NOSIG
Loading
Personal Weather Stations






























Interactive Weather Map New forecast layout! Learn more

10-Day Weather Forecast

Advertisements
Track Severe Weather on mobile